sensor_id;sensor_type;location;lat;lon;timestamp;P1;durP1;ratioP1;P2;durP2;ratioP2
13051;SDS011;6592;47.484;9.726;2023-03-20T00:02:24;1.40;;;0.65;;
13051;SDS011;6592;47.484;9.726;2023-03-20T00:04:53;1.73;;;0.73;;
13051;SDS011;6592;47.484;9.726;2023-03-20T00:07:22;2.90;;;0.80;;
13051;SDS011;6592;47.484;9.726;2023-03-20T00:09:51;1.70;;;0.80;;
13051;SDS011;6592;47.484;9.726;2023-03-20T00:12:21;1.95;;;0.80;;
13051;SDS011;6592;47.484;9.726;2023-03-20T00:14:53;1.90;;;0.82;;
13051;SDS011;6592;47.484;9.726;2023-03-20T00:17:22;1.80;;;0.90;;
13051;SDS011;6592;47.484;9.726;2023-03-20T00:19:52;1.98;;;0.80;;
13051;SDS011;6592;47.484;9.726;2023-03-20T00:22:21;2.40;;;1.10;;
13051;SDS011;6592;47.484;9.726;2023-03-20T00:24:50;1.80;;;0.90;;
13051;SDS011;6592;47.484;9.726;2023-03-20T00:27:19;3.55;;;1.10;;
13051;SDS011;6592;47.484;9.726;2023-03-20T00:29:48;2.03;;;1.00;;
13051;SDS011;6592;47.484;9.726;2023-03-20T00:32:16;2.28;;;1.10;;
13051;SDS011;6592;47.484;9.726;2023-03-20T00:34:45;2.40;;;1.10;;
13051;SDS011;6592;47.484;9.726;2023-03-20T00:37:15;1.90;;;0.98;;
13051;SDS011;6592;47.484;9.726;2023-03-20T00:39:43;1.60;;;1.00;;
13051;SDS011;6592;47.484;9.726;2023-03-20T00:42:14;2.22;;;1.20;;
13051;SDS011;6592;47.484;9.726;2023-03-20T00:44:48;3.33;;;1.00;;
13051;SDS011;6592;47.484;9.726;2023-03-20T00:47:20;1.95;;;0.90;;
13051;SDS011;6592;47.484;9.726;2023-03-20T00:49:51;2.33;;;0.90;;
13051;SDS011;6592;47.484;9.726;2023-03-20T00:52:23;1.95;;;0.82;;
13051;SDS011;6592;47.484;9.726;2023-03-20T00:54:55;1.50;;;0.80;;
13051;SDS011;6592;47.484;9.726;2023-03-20T00:57:25;1.77;;;0.98;;
13051;SDS011;6592;47.484;9.726;2023-03-20T00:59:57;2.13;;;0.70;;
13051;SDS011;6592;47.484;9.726;2023-03-20T01:02:31;1.35;;;0.60;;
13051;SDS011;6592;47.484;9.726;2023-03-20T01:05:00;1.33;;;0.52;;
13051;SDS011;6592;47.484;9.726;2023-03-20T01:07:32;3.17;;;0.80;;
13051;SDS011;6592;47.484;9.726;2023-03-20T01:10:02;2.03;;;0.90;;
13051;SDS011;6592;47.484;9.726;2023-03-20T01:12:31;1.52;;;0.73;;
13051;SDS011;6592;47.484;9.726;2023-03-20T01:14:59;1.90;;;1.00;;
13051;SDS011;6592;47.484;9.726;2023-03-20T01:17:28;2.05;;;1.00;;
13051;SDS011;6592;47.484;9.726;2023-03-20T01:19:58;2.67;;;1.15;;
13051;SDS011;6592;47.484;9.726;2023-03-20T01:22:26;1.75;;;1.00;;
13051;SDS011;6592;47.484;9.726;2023-03-20T01:24:58;2.10;;;1.00;;
13051;SDS011;6592;47.484;9.726;2023-03-20T01:27:28;2.25;;;1.10;;
13051;SDS011;6592;47.484;9.726;2023-03-20T01:29:57;2.42;;;1.10;;
13051;SDS011;6592;47.484;9.726;2023-03-20T01:32:26;2.70;;;1.38;;
13051;SDS011;6592;47.484;9.726;2023-03-20T01:34:55;3.00;;;1.60;;
13051;SDS011;6592;47.484;9.726;2023-03-20T01:37:24;3.13;;;1.60;;
13051;SDS011;6592;47.484;9.726;2023-03-20T01:39:54;4.73;;;1.77;;
13051;SDS011;6592;47.484;9.726;2023-03-20T01:42:26;3.50;;;1.98;;
13051;SDS011;6592;47.484;9.726;2023-03-20T01:44:55;2.88;;;1.73;;
13051;SDS011;6592;47.484;9.726;2023-03-20T01:47:24;3.17;;;1.77;;
13051;SDS011;6592;47.484;9.726;2023-03-20T01:50:15;3.50;;;1.95;;
13051;SDS011;6592;47.484;9.726;2023-03-20T01:52:53;3.38;;;1.85;;
13051;SDS011;6592;47.484;9.726;2023-03-20T01:55:38;4.70;;;2.13;;
13051;SDS011;6592;47.484;9.726;2023-03-20T01:58:11;3.85;;;2.10;;
13051;SDS011;6592;47.484;9.726;2023-03-20T02:00:44;3.80;;;2.25;;
13051;SDS011;6592;47.484;9.726;2023-03-20T02:03:16;4.03;;;2.33;;
13051;SDS011;6592;47.484;9.726;2023-03-20T02:05:47;4.93;;;2.30;;
13051;SDS011;6592;47.484;9.726;2023-03-20T02:08:18;5.00;;;2.60;;
13051;SDS011;6592;47.484;9.726;2023-03-20T02:10:51;4.70;;;2.55;;
13051;SDS011;6592;47.484;9.726;2023-03-20T02:13:22;5.72;;;2.95;;
13051;SDS011;6592;47.484;9.726;2023-03-20T02:15:55;5.40;;;3.20;;
13051;SDS011;6592;47.484;9.726;2023-03-20T02:18:26;5.70;;;3.53;;
13051;SDS011;6592;47.484;9.726;2023-03-20T02:21:05;7.38;;;3.53;;
13051;SDS011;6592;47.484;9.726;2023-03-20T02:27:22;4.97;;;3.10;;
13051;SDS011;6592;47.484;9.726;2023-03-20T02:30:09;7.47;;;3.47;;
13051;SDS011;6592;47.484;9.726;2023-03-20T02:33:15;5.38;;;3.38;;
13051;SDS011;6592;47.484;9.726;2023-03-20T02:36:25;6.28;;;3.80;;
13051;SDS011;6592;47.484;9.726;2023-03-20T02:39:35;5.25;;;3.35;;
13051;SDS011;6592;47.484;9.726;2023-03-20T02:42:23;5.78;;;3.55;;
13051;SDS011;6592;47.484;9.726;2023-03-20T02:45:01;5.45;;;3.22;;
13051;SDS011;6592;47.484;9.726;2023-03-20T02:47:36;5.43;;;3.25;;
13051;SDS011;6592;47.484;9.726;2023-03-20T02:50:11;6.03;;;3.38;;
13051;SDS011;6592;47.484;9.726;2023-03-20T02:52:45;5.40;;;3.05;;
13051;SDS011;6592;47.484;9.726;2023-03-20T02:55:22;5.93;;;3.47;;
13051;SDS011;6592;47.484;9.726;2023-03-20T02:58:00;6.72;;;3.42;;
13051;SDS011;6592;47.484;9.726;2023-03-20T03:00:36;4.95;;;3.25;;
13051;SDS011;6592;47.484;9.726;2023-03-20T03:03:09;5.78;;;3.10;;
13051;SDS011;6592;47.484;9.726;2023-03-20T03:05:41;8.65;;;3.75;;
13051;SDS011;6592;47.484;9.726;2023-03-20T03:08:16;5.57;;;3.55;;
13051;SDS011;6592;47.484;9.726;2023-03-20T03:10:50;7.43;;;2.97;;
13051;SDS011;6592;47.484;9.726;2023-03-20T03:13:24;4.20;;;2.17;;
13051;SDS011;6592;47.484;9.726;2023-03-20T03:15:56;3.90;;;2.30;;
13051;SDS011;6592;47.484;9.726;2023-03-20T03:18:31;3.17;;;1.83;;
13051;SDS011;6592;47.484;9.726;2023-03-20T03:21:01;3.10;;;1.20;;
13051;SDS011;6592;47.484;9.726;2023-03-20T03:23:33;2.13;;;1.30;;
13051;SDS011;6592;47.484;9.726;2023-03-20T03:26:09;2.50;;;1.30;;
13051;SDS011;6592;47.484;9.726;2023-03-20T03:28:45;4.20;;;1.35;;
13051;SDS011;6592;47.484;9.726;2023-03-20T03:31:18;2.58;;;1.50;;
13051;SDS011;6592;47.484;9.726;2023-03-20T03:33:49;2.70;;;1.42;;
13051;SDS011;6592;47.484;9.726;2023-03-20T03:36:21;3.13;;;1.50;;
13051;SDS011;6592;47.484;9.726;2023-03-20T03:39:00;2.83;;;1.58;;
13051;SDS011;6592;47.484;9.726;2023-03-20T03:41:40;2.78;;;1.45;;
13051;SDS011;6592;47.484;9.726;2023-03-20T03:44:12;3.03;;;1.50;;
13051;SDS011;6592;47.484;9.726;2023-03-20T03:46:47;3.47;;;1.50;;
13051;SDS011;6592;47.484;9.726;2023-03-20T03:49:19;4.70;;;1.88;;
13051;SDS011;6592;47.484;9.726;2023-03-20T03:51:52;2.53;;;1.40;;
13051;SDS011;6592;47.484;9.726;2023-03-20T03:54:27;2.65;;;1.20;;
13051;SDS011;6592;47.484;9.726;2023-03-20T03:57:01;3.40;;;1.35;;
13051;SDS011;6592;47.484;9.726;2023-03-20T03:59:35;2.95;;;1.48;;
13051;SDS011;6592;47.484;9.726;2023-03-20T04:02:06;2.67;;;1.30;;
13051;SDS011;6592;47.484;9.726;2023-03-20T04:04:37;2.33;;;1.27;;
13051;SDS011;6592;47.484;9.726;2023-03-20T04:07:09;2.10;;;1.10;;
13051;SDS011;6592;47.484;9.726;2023-03-20T04:09:40;2.92;;;1.50;;
13051;SDS011;6592;47.484;9.726;2023-03-20T04:12:17;2.10;;;1.20;;
13051;SDS011;6592;47.484;9.726;2023-03-20T04:15:02;3.10;;;1.35;;
13051;SDS011;6592;47.484;9.726;2023-03-20T04:17:31;2.55;;;1.08;;
13051;SDS011;6592;47.484;9.726;2023-03-20T04:20:01;2.97;;;1.20;;
13051;SDS011;6592;47.484;9.726;2023-03-20T04:22:33;2.28;;;1.30;;
13051;SDS011;6592;47.484;9.726;2023-03-20T04:25:01;2.85;;;1.25;;
13051;SDS011;6592;47.484;9.726;2023-03-20T04:27:32;3.15;;;1.10;;
13051;SDS011;6592;47.484;9.726;2023-03-20T04:30:01;2.10;;;1.10;;
13051;SDS011;6592;47.484;9.726;2023-03-20T04:32:32;1.85;;;1.10;;
13051;SDS011;6592;47.484;9.726;2023-03-20T04:35:01;2.85;;;1.50;;
13051;SDS011;6592;47.484;9.726;2023-03-20T04:37:30;3.00;;;1.70;;
13051;SDS011;6592;47.484;9.726;2023-03-20T04:39:59;3.75;;;1.35;;
13051;SDS011;6592;47.484;9.726;2023-03-20T04:42:28;3.13;;;1.63;;
13051;SDS011;6592;47.484;9.726;2023-03-20T04:44:58;3.72;;;1.65;;
13051;SDS011;6592;47.484;9.726;2023-03-20T04:47:27;3.15;;;1.42;;
13051;SDS011;6592;47.484;9.726;2023-03-20T04:49:56;4.15;;;2.00;;
13051;SDS011;6592;47.484;9.726;2023-03-20T04:52:25;5.68;;;2.20;;
13051;SDS011;6592;47.484;9.726;2023-03-20T04:54:55;5.22;;;2.70;;
13051;SDS011;6592;47.484;9.726;2023-03-20T04:57:25;3.38;;;2.30;;
13051;SDS011;6592;47.484;9.726;2023-03-20T04:59:54;4.78;;;2.67;;
13051;SDS011;6592;47.484;9.726;2023-03-20T05:02:24;3.60;;;2.22;;
13051;SDS011;6592;47.484;9.726;2023-03-20T05:04:53;6.00;;;2.63;;
13051;SDS011;6592;47.484;9.726;2023-03-20T05:07:22;4.22;;;2.60;;
13051;SDS011;6592;47.484;9.726;2023-03-20T05:09:51;6.28;;;3.47;;
13051;SDS011;6592;47.484;9.726;2023-03-20T05:12:20;4.10;;;2.22;;
13051;SDS011;6592;47.484;9.726;2023-03-20T05:14:50;3.45;;;1.88;;
13051;SDS011;6592;47.484;9.726;2023-03-20T05:17:20;3.95;;;2.30;;
13051;SDS011;6592;47.484;9.726;2023-03-20T05:19:50;4.55;;;2.70;;
13051;SDS011;6592;47.484;9.726;2023-03-20T05:22:19;6.72;;;3.78;;
13051;SDS011;6592;47.484;9.726;2023-03-20T05:24:48;4.18;;;2.38;;
13051;SDS011;6592;47.484;9.726;2023-03-20T05:27:17;5.40;;;2.72;;
13051;SDS011;6592;47.484;9.726;2023-03-20T05:29:46;3.83;;;2.38;;
13051;SDS011;6592;47.484;9.726;2023-03-20T05:34:46;2.53;;;1.15;;
13051;SDS011;6592;47.484;9.726;2023-03-20T05:37:17;2.42;;;1.20;;
13051;SDS011;6592;47.484;9.726;2023-03-20T05:39:46;2.33;;;1.13;;
13051;SDS011;6592;47.484;9.726;2023-03-20T05:42:15;2.30;;;1.20;;
13051;SDS011;6592;47.484;9.726;2023-03-20T05:44:44;4.38;;;1.38;;
13051;SDS011;6592;47.484;9.726;2023-03-20T05:47:13;4.78;;;2.72;;
13051;SDS011;6592;47.484;9.726;2023-03-20T05:49:42;8.50;;;4.80;;
13051;SDS011;6592;47.484;9.726;2023-03-20T05:52:11;4.55;;;2.33;;
13051;SDS011;6592;47.484;9.726;2023-03-20T05:54:46;2.28;;;1.23;;
13051;SDS011;6592;47.484;9.726;2023-03-20T05:57:14;5.82;;;1.50;;
13051;SDS011;6592;47.484;9.726;2023-03-20T05:59:43;2.95;;;1.65;;
13051;SDS011;6592;47.484;9.726;2023-03-20T06:02:12;3.17;;;1.52;;
13051;SDS011;6592;47.484;9.726;2023-03-20T06:04:41;4.90;;;1.80;;
13051;SDS011;6592;47.484;9.726;2023-03-20T06:07:09;7.38;;;2.05;;
13051;SDS011;6592;47.484;9.726;2023-03-20T06:09:38;4.82;;;1.70;;
13051;SDS011;6592;47.484;9.726;2023-03-20T06:12:08;3.17;;;1.55;;
13051;SDS011;6592;47.484;9.726;2023-03-20T06:14:38;2.92;;;1.63;;
13051;SDS011;6592;47.484;9.726;2023-03-20T06:17:07;4.90;;;1.60;;
13051;SDS011;6592;47.484;9.726;2023-03-20T06:19:36;3.33;;;1.60;;
13051;SDS011;6592;47.484;9.726;2023-03-20T06:22:05;3.83;;;2.00;;
13051;SDS011;6592;47.484;9.726;2023-03-20T06:24:34;3.15;;;1.70;;
13051;SDS011;6592;47.484;9.726;2023-03-20T06:27:03;3.38;;;1.80;;
13051;SDS011;6592;47.484;9.726;2023-03-20T06:29:33;4.20;;;1.90;;
13051;SDS011;6592;47.484;9.726;2023-03-20T06:32:02;3.53;;;1.80;;
13051;SDS011;6592;47.484;9.726;2023-03-20T06:34:33;4.05;;;1.90;;
13051;SDS011;6592;47.484;9.726;2023-03-20T06:37:05;8.60;;;2.03;;
13051;SDS011;6592;47.484;9.726;2023-03-20T06:39:34;4.28;;;2.20;;
13051;SDS011;6592;47.484;9.726;2023-03-20T06:42:03;5.00;;;1.92;;
13051;SDS011;6592;47.484;9.726;2023-03-20T06:44:36;3.58;;;2.28;;
13051;SDS011;6592;47.484;9.726;2023-03-20T06:47:04;3.90;;;1.95;;
13051;SDS011;6592;47.484;9.726;2023-03-20T06:49:33;4.10;;;2.20;;
13051;SDS011;6592;47.484;9.726;2023-03-20T06:52:02;4.93;;;2.00;;
13051;SDS011;6592;47.484;9.726;2023-03-20T06:54:32;4.28;;;1.88;;
13051;SDS011;6592;47.484;9.726;2023-03-20T06:57:02;6.75;;;1.88;;
13051;SDS011;6592;47.484;9.726;2023-03-20T06:59:31;3.63;;;1.90;;
13051;SDS011;6592;47.484;9.726;2023-03-20T07:02:01;4.07;;;2.20;;
13051;SDS011;6592;47.484;9.726;2023-03-20T07:04:31;5.43;;;2.97;;
13051;SDS011;6592;47.484;9.726;2023-03-20T07:07:01;4.55;;;2.70;;
13051;SDS011;6592;47.484;9.726;2023-03-20T07:09:31;4.38;;;2.22;;
13051;SDS011;6592;47.484;9.726;2023-03-20T07:11:59;5.55;;;2.30;;
13051;SDS011;6592;47.484;9.726;2023-03-20T07:14:28;3.97;;;2.25;;
13051;SDS011;6592;47.484;9.726;2023-03-20T07:16:57;4.45;;;2.30;;
13051;SDS011;6592;47.484;9.726;2023-03-20T07:19:28;5.40;;;2.72;;
13051;SDS011;6592;47.484;9.726;2023-03-20T07:21:58;5.93;;;2.78;;
13051;SDS011;6592;47.484;9.726;2023-03-20T07:26:58;6.35;;;2.97;;
13051;SDS011;6592;47.484;9.726;2023-03-20T07:29:27;10.70;;;2.80;;
13051;SDS011;6592;47.484;9.726;2023-03-20T07:31:57;5.03;;;2.78;;
13051;SDS011;6592;47.484;9.726;2023-03-20T07:34:29;8.10;;;3.05;;
13051;SDS011;6592;47.484;9.726;2023-03-20T07:36:59;7.07;;;3.58;;
13051;SDS011;6592;47.484;9.726;2023-03-20T07:39:28;8.18;;;3.10;;
13051;SDS011;6592;47.484;9.726;2023-03-20T07:41:57;5.65;;;2.80;;
13051;SDS011;6592;47.484;9.726;2023-03-20T07:44:27;7.07;;;3.55;;
13051;SDS011;6592;47.484;9.726;2023-03-20T07:46:55;9.40;;;4.38;;
13051;SDS011;6592;47.484;9.726;2023-03-20T07:49:24;8.60;;;4.35;;
13051;SDS011;6592;47.484;9.726;2023-03-20T07:51:55;10.15;;;4.85;;
13051;SDS011;6592;47.484;9.726;2023-03-20T07:54:24;8.63;;;4.50;;
13051;SDS011;6592;47.484;9.726;2023-03-20T07:56:53;11.35;;;4.93;;
13051;SDS011;6592;47.484;9.726;2023-03-20T07:59:22;7.63;;;4.75;;
13051;SDS011;6592;47.484;9.726;2023-03-20T08:01:50;8.82;;;4.63;;
13051;SDS011;6592;47.484;9.726;2023-03-20T08:04:19;7.05;;;3.90;;
13051;SDS011;6592;47.484;9.726;2023-03-20T08:06:49;10.00;;;3.70;;
13051;SDS011;6592;47.484;9.726;2023-03-20T08:09:19;12.38;;;5.85;;
13051;SDS011;6592;47.484;9.726;2023-03-20T08:11:48;8.93;;;5.13;;
13051;SDS011;6592;47.484;9.726;2023-03-20T08:14:17;28.42;;;13.77;;
13051;SDS011;6592;47.484;9.726;2023-03-20T08:16:47;5.97;;;3.67;;
13051;SDS011;6592;47.484;9.726;2023-03-20T08:19:35;4.68;;;3.15;;
13051;SDS011;6592;47.484;9.726;2023-03-20T08:22:05;19.00;;;16.38;;
13051;SDS011;6592;47.484;9.726;2023-03-20T08:24:36;10.82;;;5.93;;
13051;SDS011;6592;47.484;9.726;2023-03-20T08:27:05;7.45;;;4.53;;
13051;SDS011;6592;47.484;9.726;2023-03-20T08:29:34;7.18;;;3.90;;
13051;SDS011;6592;47.484;9.726;2023-03-20T08:32:03;3.70;;;2.25;;
13051;SDS011;6592;47.484;9.726;2023-03-20T08:34:33;4.68;;;1.92;;
13051;SDS011;6592;47.484;9.726;2023-03-20T08:37:03;2.70;;;1.40;;
13051;SDS011;6592;47.484;9.726;2023-03-20T08:39:35;2.53;;;1.38;;
13051;SDS011;6592;47.484;9.726;2023-03-20T08:42:05;2.58;;;1.50;;
13051;SDS011;6592;47.484;9.726;2023-03-20T08:44:34;2.92;;;1.40;;
13051;SDS011;6592;47.484;9.726;2023-03-20T08:47:03;3.92;;;1.85;;
13051;SDS011;6592;47.484;9.726;2023-03-20T08:49:32;2.58;;;1.35;;
13051;SDS011;6592;47.484;9.726;2023-03-20T08:52:02;2.78;;;1.20;;
13051;SDS011;6592;47.484;9.726;2023-03-20T08:54:31;3.05;;;1.20;;
13051;SDS011;6592;47.484;9.726;2023-03-20T08:57:02;2.28;;;1.20;;
13051;SDS011;6592;47.484;9.726;2023-03-20T08:59:30;1.90;;;1.10;;
13051;SDS011;6592;47.484;9.726;2023-03-20T09:02:01;2.00;;;1.02;;
13051;SDS011;6592;47.484;9.726;2023-03-20T09:04:31;2.30;;;1.10;;
13051;SDS011;6592;47.484;9.726;2023-03-20T09:07:00;2.75;;;1.00;;
13051;SDS011;6592;47.484;9.726;2023-03-20T09:09:29;1.42;;;0.80;;
13051;SDS011;6592;47.484;9.726;2023-03-20T09:11:59;1.83;;;0.90;;
13051;SDS011;6592;47.484;9.726;2023-03-20T09:14:29;5.07;;;0.90;;
13051;SDS011;6592;47.484;9.726;2023-03-20T09:16:58;2.45;;;1.10;;
13051;SDS011;6592;47.484;9.726;2023-03-20T09:19:27;3.47;;;1.00;;
13051;SDS011;6592;47.484;9.726;2023-03-20T09:21:57;1.35;;;0.73;;
13051;SDS011;6592;47.484;9.726;2023-03-20T09:24:26;1.92;;;0.80;;
13051;SDS011;6592;47.484;9.726;2023-03-20T09:26:57;1.85;;;0.80;;
13051;SDS011;6592;47.484;9.726;2023-03-20T09:29:30;1.98;;;0.80;;
13051;SDS011;6592;47.484;9.726;2023-03-20T09:32:00;2.00;;;0.80;;
13051;SDS011;6592;47.484;9.726;2023-03-20T09:34:32;1.92;;;0.88;;
13051;SDS011;6592;47.484;9.726;2023-03-20T09:37:02;1.55;;;0.73;;
13051;SDS011;6592;47.484;9.726;2023-03-20T09:39:30;2.30;;;0.77;;
13051;SDS011;6592;47.484;9.726;2023-03-20T09:42:00;2.47;;;0.80;;
13051;SDS011;6592;47.484;9.726;2023-03-20T09:44:39;2.05;;;0.70;;
13051;SDS011;6592;47.484;9.726;2023-03-20T09:47:17;3.08;;;0.82;;
13051;SDS011;6592;47.484;9.726;2023-03-20T09:49:58;1.27;;;0.60;;
13051;SDS011;6592;47.484;9.726;2023-03-20T09:52:51;1.02;;;0.50;;
13051;SDS011;6592;47.484;9.726;2023-03-20T09:55:30;1.33;;;0.50;;
13051;SDS011;6592;47.484;9.726;2023-03-20T09:58:03;1.83;;;0.68;;
13051;SDS011;6592;47.484;9.726;2023-03-20T10:00:39;1.67;;;0.60;;
13051;SDS011;6592;47.484;9.726;2023-03-20T10:03:15;1.30;;;0.60;;
13051;SDS011;6592;47.484;9.726;2023-03-20T10:05:47;3.13;;;0.60;;
13051;SDS011;6592;47.484;9.726;2023-03-20T10:08:21;1.95;;;0.80;;
13051;SDS011;6592;47.484;9.726;2023-03-20T10:10:57;1.88;;;0.60;;
13051;SDS011;6592;47.484;9.726;2023-03-20T10:13:47;1.85;;;0.80;;
13051;SDS011;6592;47.484;9.726;2023-03-20T10:16:30;1.55;;;0.50;;
13051;SDS011;6592;47.484;9.726;2023-03-20T10:19:07;0.85;;;0.43;;
13051;SDS011;6592;47.484;9.726;2023-03-20T10:21:45;1.67;;;0.52;;
13051;SDS011;6592;47.484;9.726;2023-03-20T10:24:21;0.98;;;0.50;;
13051;SDS011;6592;47.484;9.726;2023-03-20T10:26:57;1.25;;;0.40;;
13051;SDS011;6592;47.484;9.726;2023-03-20T10:29:32;2.15;;;0.60;;
13051;SDS011;6592;47.484;9.726;2023-03-20T10:32:13;0.88;;;0.60;;
13051;SDS011;6592;47.484;9.726;2023-03-20T10:34:49;1.33;;;0.60;;
13051;SDS011;6592;47.484;9.726;2023-03-20T10:37:31;1.35;;;0.73;;
13051;SDS011;6592;47.484;9.726;2023-03-20T10:40:21;2.10;;;0.80;;
13051;SDS011;6592;47.484;9.726;2023-03-20T10:42:55;1.50;;;0.80;;
13051;SDS011;6592;47.484;9.726;2023-03-20T10:45:29;1.48;;;0.75;;
13051;SDS011;6592;47.484;9.726;2023-03-20T10:48:08;2.17;;;0.95;;
13051;SDS011;6592;47.484;9.726;2023-03-20T10:50:43;3.10;;;0.90;;
13051;SDS011;6592;47.484;9.726;2023-03-20T10:53:20;1.80;;;1.00;;
13051;SDS011;6592;47.484;9.726;2023-03-20T10:55:55;1.65;;;1.00;;
13051;SDS011;6592;47.484;9.726;2023-03-20T10:58:27;2.20;;;0.90;;
13051;SDS011;6592;47.484;9.726;2023-03-20T11:00:58;2.17;;;1.20;;
13051;SDS011;6592;47.484;9.726;2023-03-20T11:03:30;1.67;;;0.90;;
13051;SDS011;6592;47.484;9.726;2023-03-20T11:06:05;1.42;;;0.75;;
13051;SDS011;6592;47.484;9.726;2023-03-20T11:08:42;2.10;;;1.00;;
13051;SDS011;6592;47.484;9.726;2023-03-20T11:11:20;1.45;;;0.95;;
13051;SDS011;6592;47.484;9.726;2023-03-20T11:13:50;2.28;;;1.00;;
13051;SDS011;6592;47.484;9.726;2023-03-20T11:16:20;2.80;;;1.20;;
13051;SDS011;6592;47.484;9.726;2023-03-20T11:18:52;1.70;;;1.00;;
13051;SDS011;6592;47.484;9.726;2023-03-20T11:21:22;3.28;;;1.38;;
13051;SDS011;6592;47.484;9.726;2023-03-20T11:23:53;2.30;;;1.40;;
13051;SDS011;6592;47.484;9.726;2023-03-20T11:26:29;2.78;;;1.35;;
13051;SDS011;6592;47.484;9.726;2023-03-20T11:29:03;2.38;;;1.40;;
13051;SDS011;6592;47.484;9.726;2023-03-20T11:31:34;2.15;;;1.45;;
13051;SDS011;6592;47.484;9.726;2023-03-20T11:34:19;2.10;;;1.45;;
13051;SDS011;6592;47.484;9.726;2023-03-20T11:36:53;3.03;;;1.55;;
13051;SDS011;6592;47.484;9.726;2023-03-20T11:39:35;2.10;;;1.30;;
13051;SDS011;6592;47.484;9.726;2023-03-20T11:42:18;2.53;;;1.30;;
13051;SDS011;6592;47.484;9.726;2023-03-20T11:44:55;2.10;;;1.30;;
13051;SDS011;6592;47.484;9.726;2023-03-20T11:47:26;3.05;;;1.60;;
13051;SDS011;6592;47.484;9.726;2023-03-20T11:50:04;1.85;;;1.33;;
13051;SDS011;6592;47.484;9.726;2023-03-20T11:52:51;1.92;;;1.20;;
13051;SDS011;6592;47.484;9.726;2023-03-20T11:55:23;2.35;;;1.27;;
13051;SDS011;6592;47.484;9.726;2023-03-20T11:57:55;2.17;;;1.40;;
13051;SDS011;6592;47.484;9.726;2023-03-20T12:00:26;2.15;;;1.35;;
13051;SDS011;6592;47.484;9.726;2023-03-20T12:02:57;1.95;;;1.40;;
13051;SDS011;6592;47.484;9.726;2023-03-20T12:05:28;2.33;;;1.40;;
13051;SDS011;6592;47.484;9.726;2023-03-20T12:10:40;2.63;;;1.20;;
13051;SDS011;6592;47.484;9.726;2023-03-20T12:13:12;1.92;;;1.10;;
13051;SDS011;6592;47.484;9.726;2023-03-20T12:15:45;2.67;;;1.40;;
13051;SDS011;6592;47.484;9.726;2023-03-20T12:18:18;1.98;;;1.08;;
13051;SDS011;6592;47.484;9.726;2023-03-20T12:20:57;1.92;;;1.02;;
13051;SDS011;6592;47.484;9.726;2023-03-20T12:23:33;1.88;;;1.00;;
13051;SDS011;6592;47.484;9.726;2023-03-20T12:26:09;1.88;;;1.00;;
13051;SDS011;6592;47.484;9.726;2023-03-20T12:28:41;4.70;;;1.10;;
13051;SDS011;6592;47.484;9.726;2023-03-20T12:31:19;1.90;;;0.80;;
13051;SDS011;6592;47.484;9.726;2023-03-20T12:33:53;3.03;;;1.00;;
13051;SDS011;6592;47.484;9.726;2023-03-20T12:36:30;1.90;;;1.00;;
13051;SDS011;6592;47.484;9.726;2023-03-20T12:39:02;1.98;;;1.20;;
13051;SDS011;6592;47.484;9.726;2023-03-20T12:47:04;1.60;;;1.08;;
13051;SDS011;6592;47.484;9.726;2023-03-20T12:49:47;2.00;;;1.08;;
13051;SDS011;6592;47.484;9.726;2023-03-20T12:52:27;2.58;;;1.10;;
13051;SDS011;6592;47.484;9.726;2023-03-20T12:55:14;3.85;;;1.70;;
13051;SDS011;6592;47.484;9.726;2023-03-20T12:57:54;1.80;;;1.00;;
13051;SDS011;6592;47.484;9.726;2023-03-20T13:00:31;1.67;;;1.05;;
13051;SDS011;6592;47.484;9.726;2023-03-20T13:03:08;1.65;;;0.85;;
13051;SDS011;6592;47.484;9.726;2023-03-20T13:05:47;2.17;;;1.10;;
13051;SDS011;6592;47.484;9.726;2023-03-20T13:08:24;2.10;;;1.10;;
13051;SDS011;6592;47.484;9.726;2023-03-20T13:11:09;2.47;;;1.00;;
13051;SDS011;6592;47.484;9.726;2023-03-20T13:13:48;1.67;;;1.00;;
13051;SDS011;6592;47.484;9.726;2023-03-20T13:16:25;1.30;;;0.90;;
13051;SDS011;6592;47.484;9.726;2023-03-20T13:19:05;1.52;;;0.70;;
13051;SDS011;6592;47.484;9.726;2023-03-20T13:21:40;1.60;;;0.82;;
13051;SDS011;6592;47.484;9.726;2023-03-20T13:24:21;1.50;;;0.93;;
13051;SDS011;6592;47.484;9.726;2023-03-20T13:27:01;1.10;;;0.68;;
13051;SDS011;6592;47.484;9.726;2023-03-20T13:29:39;1.10;;;0.70;;
13051;SDS011;6592;47.484;9.726;2023-03-20T13:32:19;1.20;;;0.70;;
13051;SDS011;6592;47.484;9.726;2023-03-20T13:34:56;1.88;;;0.75;;
13051;SDS011;6592;47.484;9.726;2023-03-20T13:37:40;2.38;;;0.85;;
13051;SDS011;6592;47.484;9.726;2023-03-20T13:40:17;1.25;;;0.60;;
13051;SDS011;6592;47.484;9.726;2023-03-20T13:42:51;1.55;;;0.70;;
13051;SDS011;6592;47.484;9.726;2023-03-20T13:45:26;1.30;;;0.80;;
13051;SDS011;6592;47.484;9.726;2023-03-20T13:48:02;1.27;;;0.77;;
13051;SDS011;6592;47.484;9.726;2023-03-20T13:50:41;1.83;;;0.70;;
13051;SDS011;6592;47.484;9.726;2023-03-20T13:53:21;1.23;;;0.65;;
13051;SDS011;6592;47.484;9.726;2023-03-20T13:56:03;2.35;;;0.70;;
13051;SDS011;6592;47.484;9.726;2023-03-20T13:58:48;1.30;;;0.60;;
13051;SDS011;6592;47.484;9.726;2023-03-20T14:01:28;1.38;;;0.70;;
13051;SDS011;6592;47.484;9.726;2023-03-20T14:04:04;1.02;;;0.60;;
13051;SDS011;6592;47.484;9.726;2023-03-20T14:06:44;2.08;;;0.73;;
13051;SDS011;6592;47.484;9.726;2023-03-20T14:09:23;1.77;;;0.70;;
13051;SDS011;6592;47.484;9.726;2023-03-20T14:12:00;1.10;;;0.70;;
13051;SDS011;6592;47.484;9.726;2023-03-20T14:14:31;2.28;;;0.70;;
13051;SDS011;6592;47.484;9.726;2023-03-20T14:17:07;1.80;;;0.90;;
13051;SDS011;6592;47.484;9.726;2023-03-20T14:19:43;1.10;;;0.60;;
13051;SDS011;6592;47.484;9.726;2023-03-20T14:22:13;1.58;;;0.60;;
13051;SDS011;6592;47.484;9.726;2023-03-20T14:24:52;1.75;;;0.70;;
13051;SDS011;6592;47.484;9.726;2023-03-20T14:27:26;1.55;;;0.80;;
13051;SDS011;6592;47.484;9.726;2023-03-20T14:33:26;2.17;;;0.90;;
13051;SDS011;6592;47.484;9.726;2023-03-20T14:36:18;1.13;;;0.63;;
13051;SDS011;6592;47.484;9.726;2023-03-20T14:38:58;1.98;;;0.90;;
13051;SDS011;6592;47.484;9.726;2023-03-20T14:41:41;2.83;;;0.90;;
13051;SDS011;6592;47.484;9.726;2023-03-20T14:44:33;1.30;;;0.80;;
13051;SDS011;6592;47.484;9.726;2023-03-20T14:47:20;1.25;;;0.70;;
13051;SDS011;6592;47.484;9.726;2023-03-20T14:49:54;1.65;;;0.80;;
13051;SDS011;6592;47.484;9.726;2023-03-20T14:52:34;1.15;;;0.75;;
13051;SDS011;6592;47.484;9.726;2023-03-20T14:55:26;0.95;;;0.60;;
13051;SDS011;6592;47.484;9.726;2023-03-20T14:58:01;1.45;;;0.80;;
13051;SDS011;6592;47.484;9.726;2023-03-20T15:00:35;1.65;;;0.63;;
13051;SDS011;6592;47.484;9.726;2023-03-20T15:03:14;1.35;;;0.70;;
13051;SDS011;6592;47.484;9.726;2023-03-20T15:05:44;1.63;;;0.88;;
13051;SDS011;6592;47.484;9.726;2023-03-20T15:08:20;1.23;;;0.80;;
13051;SDS011;6592;47.484;9.726;2023-03-20T15:10:55;1.30;;;0.80;;
13051;SDS011;6592;47.484;9.726;2023-03-20T15:13:28;3.90;;;0.90;;
13051;SDS011;6592;47.484;9.726;2023-03-20T15:16:04;1.73;;;0.80;;
13051;SDS011;6592;47.484;9.726;2023-03-20T15:18:36;1.10;;;0.75;;
13051;SDS011;6592;47.484;9.726;2023-03-20T15:21:10;1.30;;;0.80;;
13051;SDS011;6592;47.484;9.726;2023-03-20T15:23:41;1.33;;;0.80;;
13051;SDS011;6592;47.484;9.726;2023-03-20T15:26:12;1.40;;;0.77;;
13051;SDS011;6592;47.484;9.726;2023-03-20T15:28:42;2.38;;;0.80;;
13051;SDS011;6592;47.484;9.726;2023-03-20T15:31:19;1.27;;;0.88;;
13051;SDS011;6592;47.484;9.726;2023-03-20T15:33:51;1.38;;;0.88;;
13051;SDS011;6592;47.484;9.726;2023-03-20T15:36:21;1.25;;;0.80;;
13051;SDS011;6592;47.484;9.726;2023-03-20T15:38:52;1.38;;;0.60;;
13051;SDS011;6592;47.484;9.726;2023-03-20T15:41:30;1.58;;;0.68;;
13051;SDS011;6592;47.484;9.726;2023-03-20T15:44:02;1.45;;;0.70;;
13051;SDS011;6592;47.484;9.726;2023-03-20T15:46:52;1.48;;;0.70;;
13051;SDS011;6592;47.484;9.726;2023-03-20T15:49:24;2.33;;;0.80;;
13051;SDS011;6592;47.484;9.726;2023-03-20T15:51:55;1.17;;;0.73;;
13051;SDS011;6592;47.484;9.726;2023-03-20T15:54:28;1.40;;;0.80;;
13051;SDS011;6592;47.484;9.726;2023-03-20T15:56:58;1.27;;;0.75;;
13051;SDS011;6592;47.484;9.726;2023-03-20T15:59:29;1.80;;;0.98;;